sensor_id;sensor_type;location;lat;lon;timestamp;temperature;humidity
18126;DHT22;53956;52.442;13.284;2023-03-12T00:01:30;5.00;93.70
18126;DHT22;53956;52.442;13.284;2023-03-12T00:04:00;4.90;94.20
18126;DHT22;53956;52.442;13.284;2023-03-12T00:06:27;5.10;94.00
18126;DHT22;53956;52.442;13.284;2023-03-12T00:08:55;5.00;95.10
18126;DHT22;53956;52.442;13.284;2023-03-12T00:11:21;5.00;94.50
18126;DHT22;53956;52.442;13.284;2023-03-12T00:13:49;5.00;94.40
18126;DHT22;53956;52.442;13.284;2023-03-12T00:16:15;5.00;93.90
18126;DHT22;53956;52.442;13.284;2023-03-12T00:18:43;5.10;94.70
18126;DHT22;53956;52.442;13.284;2023-03-12T00:21:10;4.90;93.60
18126;DHT22;53956;52.442;13.284;2023-03-12T00:23:37;4.90;93.90
18126;DHT22;53956;52.442;13.284;2023-03-12T00:26:06;4.90;93.80
18126;DHT22;53956;52.442;13.284;2023-03-12T00:28:34;5.00;92.90
18126;DHT22;53956;52.442;13.284;2023-03-12T00:31:01;5.10;93.10
18126;DHT22;53956;52.442;13.284;2023-03-12T00:33:28;4.90;93.70
18126;DHT22;53956;52.442;13.284;2023-03-12T00:35:55;4.80;93.50
18126;DHT22;53956;52.442;13.284;2023-03-12T00:38:22;4.80;93.40
18126;DHT22;53956;52.442;13.284;2023-03-12T00:40:48;4.80;92.90
18126;DHT22;53956;52.442;13.284;2023-03-12T00:43:16;4.90;92.90
18126;DHT22;53956;52.442;13.284;2023-03-12T00:45:44;5.10;93.70
18126;DHT22;53956;52.442;13.284;2023-03-12T00:48:10;4.90;92.90
18126;DHT22;53956;52.442;13.284;2023-03-12T00:50:37;4.90;93.90
18126;DHT22;53956;52.442;13.284;2023-03-12T00:53:03;5.00;92.70
18126;DHT22;53956;52.442;13.284;2023-03-12T00:55:30;4.60;92.70
18126;DHT22;53956;52.442;13.284;2023-03-12T00:57:57;4.80;93.10
18126;DHT22;53956;52.442;13.284;2023-03-12T01:00:25;4.70;92.50
18126;DHT22;53956;52.442;13.284;2023-03-12T01:02:52;4.90;93.10
18126;DHT22;53956;52.442;13.284;2023-03-12T01:05:19;4.80;94.00
18126;DHT22;53956;52.442;13.284;2023-03-12T01:07:46;4.90;94.00
18126;DHT22;53956;52.442;13.284;2023-03-12T01:10:15;5.10;92.60
18126;DHT22;53956;52.442;13.284;2023-03-12T01:12:44;4.90;92.80
18126;DHT22;53956;52.442;13.284;2023-03-12T01:15:13;4.80;93.80
18126;DHT22;53956;52.442;13.284;2023-03-12T01:17:41;5.00;93.80
18126;DHT22;53956;52.442;13.284;2023-03-12T01:20:09;5.00;94.30
18126;DHT22;53956;52.442;13.284;2023-03-12T01:22:36;5.00;93.30
18126;DHT22;53956;52.442;13.284;2023-03-12T01:25:03;5.10;93.50
18126;DHT22;53956;52.442;13.284;2023-03-12T01:27:30;4.90;92.90
18126;DHT22;53956;52.442;13.284;2023-03-12T01:29:57;5.00;93.30
18126;DHT22;53956;52.442;13.284;2023-03-12T01:32:23;4.90;94.20
18126;DHT22;53956;52.442;13.284;2023-03-12T01:34:52;5.00;92.80
18126;DHT22;53956;52.442;13.284;2023-03-12T01:37:19;5.10;93.30
18126;DHT22;53956;52.442;13.284;2023-03-12T01:39:45;4.90;93.50
18126;DHT22;53956;52.442;13.284;2023-03-12T01:42:12;4.90;94.20
18126;DHT22;53956;52.442;13.284;2023-03-12T01:44:52;5.00;94.20
18126;DHT22;53956;52.442;13.284;2023-03-12T01:47:19;4.60;93.80
18126;DHT22;53956;52.442;13.284;2023-03-12T01:49:47;4.90;93.90
18126;DHT22;53956;52.442;13.284;2023-03-12T01:52:20;4.90;93.90
18126;DHT22;53956;52.442;13.284;2023-03-12T01:54:54;4.80;93.50
18126;DHT22;53956;52.442;13.284;2023-03-12T01:57:27;4.90;93.60
18126;DHT22;53956;52.442;13.284;2023-03-12T02:00:04;5.00;94.70
18126;DHT22;53956;52.442;13.284;2023-03-12T02:02:39;5.00;94.00
18126;DHT22;53956;52.442;13.284;2023-03-12T02:05:12;4.90;94.00
18126;DHT22;53956;52.442;13.284;2023-03-12T02:07:42;4.90;94.20
18126;DHT22;53956;52.442;13.284;2023-03-12T02:10:09;5.10;94.70
18126;DHT22;53956;52.442;13.284;2023-03-12T02:12:36;5.00;93.50
18126;DHT22;53956;52.442;13.284;2023-03-12T02:15:04;4.90;93.80
18126;DHT22;53956;52.442;13.284;2023-03-12T02:17:32;5.00;94.30
18126;DHT22;53956;52.442;13.284;2023-03-12T02:20:09;4.90;94.20
18126;DHT22;53956;52.442;13.284;2023-03-12T02:22:45;4.90;93.60
18126;DHT22;53956;52.442;13.284;2023-03-12T02:25:23;5.00;94.30
18126;DHT22;53956;52.442;13.284;2023-03-12T02:27:52;5.00;94.40
18126;DHT22;53956;52.442;13.284;2023-03-12T02:30:19;5.00;95.40
18126;DHT22;53956;52.442;13.284;2023-03-12T02:32:47;5.00;94.60
18126;DHT22;53956;52.442;13.284;2023-03-12T02:35:16;5.10;93.80
18126;DHT22;53956;52.442;13.284;2023-03-12T02:37:47;4.80;94.70
18126;DHT22;53956;52.442;13.284;2023-03-12T02:40:19;5.00;95.20
18126;DHT22;53956;52.442;13.284;2023-03-12T02:42:48;4.90;94.50
18126;DHT22;53956;52.442;13.284;2023-03-12T02:45:15;5.00;94.90
18126;DHT22;53956;52.442;13.284;2023-03-12T02:47:43;4.90;94.20
18126;DHT22;53956;52.442;13.284;2023-03-12T02:50:11;4.90;94.40
18126;DHT22;53956;52.442;13.284;2023-03-12T02:52:37;4.90;93.90
18126;DHT22;53956;52.442;13.284;2023-03-12T02:55:05;5.10;95.00
18126;DHT22;53956;52.442;13.284;2023-03-12T02:57:33;5.10;94.50
18126;DHT22;53956;52.442;13.284;2023-03-12T03:00:04;5.00;94.60
18126;DHT22;53956;52.442;13.284;2023-03-12T03:02:31;5.10;95.40
18126;DHT22;53956;52.442;13.284;2023-03-12T03:04:58;5.00;95.00
18126;DHT22;53956;52.442;13.284;2023-03-12T03:07:25;5.00;95.10
18126;DHT22;53956;52.442;13.284;2023-03-12T03:09:52;5.00;95.20
18126;DHT22;53956;52.442;13.284;2023-03-12T03:12:18;4.90;95.00
18126;DHT22;53956;52.442;13.284;2023-03-12T03:14:47;5.10;94.70
18126;DHT22;53956;52.442;13.284;2023-03-12T03:17:15;4.90;94.40
18126;DHT22;53956;52.442;13.284;2023-03-12T03:19:41;4.80;94.00
18126;DHT22;53956;52.442;13.284;2023-03-12T03:22:09;5.00;94.90
18126;DHT22;53956;52.442;13.284;2023-03-12T03:24:36;4.90;95.10
18126;DHT22;53956;52.442;13.284;2023-03-12T03:27:02;4.80;95.00
18126;DHT22;53956;52.442;13.284;2023-03-12T03:29:29;4.80;95.00
18126;DHT22;53956;52.442;13.284;2023-03-12T03:31:57;4.90;95.60
18126;DHT22;53956;52.442;13.284;2023-03-12T03:34:24;4.80;95.10
18126;DHT22;53956;52.442;13.284;2023-03-12T03:36:51;4.70;94.90
18126;DHT22;53956;52.442;13.284;2023-03-12T03:39:19;4.80;95.10
18126;DHT22;53956;52.442;13.284;2023-03-12T03:41:46;4.90;96.20
18126;DHT22;53956;52.442;13.284;2023-03-12T03:44:17;4.80;95.70
18126;DHT22;53956;52.442;13.284;2023-03-12T03:46:45;4.90;95.50
18126;DHT22;53956;52.442;13.284;2023-03-12T03:49:14;4.80;96.20
18126;DHT22;53956;52.442;13.284;2023-03-12T03:51:41;4.90;95.10
18126;DHT22;53956;52.442;13.284;2023-03-12T03:54:09;4.80;95.70
18126;DHT22;53956;52.442;13.284;2023-03-12T03:56:39;4.80;96.20
18126;DHT22;53956;52.442;13.284;2023-03-12T03:59:06;4.70;95.40
18126;DHT22;53956;52.442;13.284;2023-03-12T04:01:36;4.70;95.90
18126;DHT22;53956;52.442;13.284;2023-03-12T04:04:03;4.90;96.70
18126;DHT22;53956;52.442;13.284;2023-03-12T04:06:33;4.70;96.00
18126;DHT22;53956;52.442;13.284;2023-03-12T04:09:00;4.70;96.80
18126;DHT22;53956;52.442;13.284;2023-03-12T04:11:29;4.60;96.80
18126;DHT22;53956;52.442;13.284;2023-03-12T04:13:57;4.70;96.40
18126;DHT22;53956;52.442;13.284;2023-03-12T04:16:27;4.80;97.20
18126;DHT22;53956;52.442;13.284;2023-03-12T04:18:54;4.70;97.30
18126;DHT22;53956;52.442;13.284;2023-03-12T04:21:22;4.50;97.10
18126;DHT22;53956;52.442;13.284;2023-03-12T04:23:51;4.70;97.80
18126;DHT22;53956;52.442;13.284;2023-03-12T04:26:21;4.60;97.50
18126;DHT22;53956;52.442;13.284;2023-03-12T04:28:48;4.70;97.30
18126;DHT22;53956;52.442;13.284;2023-03-12T04:31:14;4.50;97.70
18126;DHT22;53956;52.442;13.284;2023-03-12T04:33:48;4.50;98.20
18126;DHT22;53956;52.442;13.284;2023-03-12T04:36:16;4.60;97.50
18126;DHT22;53956;52.442;13.284;2023-03-12T04:38:45;4.50;98.10
18126;DHT22;53956;52.442;13.284;2023-03-12T04:41:15;4.70;98.60
18126;DHT22;53956;52.442;13.284;2023-03-12T04:43:50;4.50;98.50
18126;DHT22;53956;52.442;13.284;2023-03-12T04:46:18;4.50;99.40
18126;DHT22;53956;52.442;13.284;2023-03-12T04:48:44;4.50;98.80
18126;DHT22;53956;52.442;13.284;2023-03-12T04:51:13;4.50;98.40
18126;DHT22;53956;52.442;13.284;2023-03-12T04:53:39;4.70;99.90
18126;DHT22;53956;52.442;13.284;2023-03-12T04:56:08;4.50;98.60
18126;DHT22;53956;52.442;13.284;2023-03-12T04:58:37;4.60;99.90
18126;DHT22;53956;52.442;13.284;2023-03-12T05:01:05;4.40;98.80
18126;DHT22;53956;52.442;13.284;2023-03-12T05:03:32;4.30;98.60
18126;DHT22;53956;52.442;13.284;2023-03-12T05:06:00;4.50;98.60
18126;DHT22;53956;52.442;13.284;2023-03-12T05:08:27;4.30;99.30
18126;DHT22;53956;52.442;13.284;2023-03-12T05:10:53;4.60;99.10
18126;DHT22;53956;52.442;13.284;2023-03-12T05:13:21;4.40;98.80
18126;DHT22;53956;52.442;13.284;2023-03-12T05:15:53;4.40;98.90
18126;DHT22;53956;52.442;13.284;2023-03-12T05:18:20;4.60;99.00
18126;DHT22;53956;52.442;13.284;2023-03-12T05:20:57;4.30;98.90
18126;DHT22;53956;52.442;13.284;2023-03-12T05:23:23;4.50;99.80
18126;DHT22;53956;52.442;13.284;2023-03-12T05:25:50;4.40;99.40
18126;DHT22;53956;52.442;13.284;2023-03-12T05:28:17;4.60;98.90
18126;DHT22;53956;52.442;13.284;2023-03-12T05:30:45;4.50;98.70
18126;DHT22;53956;52.442;13.284;2023-03-12T05:33:13;4.30;98.60
18126;DHT22;53956;52.442;13.284;2023-03-12T05:35:40;4.50;98.20
18126;DHT22;53956;52.442;13.284;2023-03-12T05:38:06;4.30;98.50
18126;DHT22;53956;52.442;13.284;2023-03-12T05:40:33;4.30;98.50
18126;DHT22;53956;52.442;13.284;2023-03-12T05:42:59;4.40;98.40
18126;DHT22;53956;52.442;13.284;2023-03-12T05:45:26;4.40;98.80
18126;DHT22;53956;52.442;13.284;2023-03-12T05:47:55;4.40;98.40
18126;DHT22;53956;52.442;13.284;2023-03-12T05:50:25;4.30;98.70
18126;DHT22;53956;52.442;13.284;2023-03-12T05:52:52;4.40;98.70
18126;DHT22;53956;52.442;13.284;2023-03-12T05:55:18;4.30;98.50
18126;DHT22;53956;52.442;13.284;2023-03-12T05:57:46;4.40;98.20
18126;DHT22;53956;52.442;13.284;2023-03-12T06:00:13;4.40;98.50
18126;DHT22;53956;52.442;13.284;2023-03-12T06:02:45;4.40;98.70
18126;DHT22;53956;52.442;13.284;2023-03-12T06:05:13;4.50;98.50
18126;DHT22;53956;52.442;13.284;2023-03-12T06:07:41;4.40;98.10
18126;DHT22;53956;52.442;13.284;2023-03-12T06:10:09;4.50;97.90
18126;DHT22;53956;52.442;13.284;2023-03-12T06:12:36;4.60;98.00
18126;DHT22;53956;52.442;13.284;2023-03-12T06:15:03;4.60;97.60
18126;DHT22;53956;52.442;13.284;2023-03-12T06:17:31;4.90;97.00
18126;DHT22;53956;52.442;13.284;2023-03-12T06:19:58;6.20;95.00
18126;DHT22;53956;52.442;13.284;2023-03-12T06:22:25;7.30;92.00
18126;DHT22;53956;52.442;13.284;2023-03-12T06:24:53;8.10;89.40
18126;DHT22;53956;52.442;13.284;2023-03-12T06:27:20;8.90;87.60
18126;DHT22;53956;52.442;13.284;2023-03-12T06:29:47;9.60;84.80
18126;DHT22;53956;52.442;13.284;2023-03-12T06:32:14;9.90;82.20
18126;DHT22;53956;52.442;13.284;2023-03-12T06:34:41;10.30;82.50
18126;DHT22;53956;52.442;13.284;2023-03-12T06:37:07;10.40;81.10
18126;DHT22;53956;52.442;13.284;2023-03-12T06:39:34;10.10;81.00
18126;DHT22;53956;52.442;13.284;2023-03-12T06:42:02;10.80;80.20
18126;DHT22;53956;52.442;13.284;2023-03-12T06:44:29;11.30;78.10
18126;DHT22;53956;52.442;13.284;2023-03-12T06:46:56;11.90;76.60
18126;DHT22;53956;52.442;13.284;2023-03-12T06:49:23;12.70;73.80
18126;DHT22;53956;52.442;13.284;2023-03-12T06:51:52;12.80;72.80
18126;DHT22;53956;52.442;13.284;2023-03-12T06:54:20;13.00;71.60
18126;DHT22;53956;52.442;13.284;2023-03-12T06:56:46;12.10;74.70
18126;DHT22;53956;52.442;13.284;2023-03-12T06:59:15;11.30;77.40
18126;DHT22;53956;52.442;13.284;2023-03-12T07:01:42;11.30;76.90
18126;DHT22;53956;52.442;13.284;2023-03-12T07:04:09;11.20;76.00
18126;DHT22;53956;52.442;13.284;2023-03-12T07:06:36;11.80;77.30
18126;DHT22;53956;52.442;13.284;2023-03-12T07:09:03;12.80;73.80
18126;DHT22;53956;52.442;13.284;2023-03-12T07:11:30;13.30;70.60
18126;DHT22;53956;52.442;13.284;2023-03-12T07:13:57;13.90;69.50
18126;DHT22;53956;52.442;13.284;2023-03-12T07:16:25;14.70;68.50
18126;DHT22;53956;52.442;13.284;2023-03-12T07:18:51;14.90;66.50
18126;DHT22;53956;52.442;13.284;2023-03-12T07:21:18;15.20;65.20
18126;DHT22;53956;52.442;13.284;2023-03-12T07:23:47;15.20;64.80
18126;DHT22;53956;52.442;13.284;2023-03-12T07:26:14;15.80;62.30
18126;DHT22;53956;52.442;13.284;2023-03-12T07:28:40;16.20;63.80
18126;DHT22;53956;52.442;13.284;2023-03-12T07:31:07;16.40;60.10
18126;DHT22;53956;52.442;13.284;2023-03-12T07:33:35;15.90;60.30
18126;DHT22;53956;52.442;13.284;2023-03-12T07:36:02;15.40;61.50
18126;DHT22;53956;52.442;13.284;2023-03-12T07:38:29;15.30;63.80
18126;DHT22;53956;52.442;13.284;2023-03-12T07:40:57;15.40;62.00
18126;DHT22;53956;52.442;13.284;2023-03-12T07:43:24;16.30;61.20
18126;DHT22;53956;52.442;13.284;2023-03-12T07:45:53;15.60;61.50
18126;DHT22;53956;52.442;13.284;2023-03-12T07:48:19;15.50;61.20
18126;DHT22;53956;52.442;13.284;2023-03-12T07:50:47;14.60;64.10
18126;DHT22;53956;52.442;13.284;2023-03-12T07:53:14;14.00;65.60
18126;DHT22;53956;52.442;13.284;2023-03-12T07:55:43;13.10;68.50
18126;DHT22;53956;52.442;13.284;2023-03-12T07:58:10;13.20;68.20
18126;DHT22;53956;52.442;13.284;2023-03-12T08:00:37;13.00;68.20
18126;DHT22;53956;52.442;13.284;2023-03-12T08:03:04;13.40;68.50
18126;DHT22;53956;52.442;13.284;2023-03-12T08:05:31;14.30;66.50
18126;DHT22;53956;52.442;13.284;2023-03-12T08:07:59;15.40;66.10
18126;DHT22;53956;52.442;13.284;2023-03-12T08:10:25;16.00;61.30
18126;DHT22;53956;52.442;13.284;2023-03-12T08:12:52;16.10;62.30
18126;DHT22;53956;52.442;13.284;2023-03-12T08:15:19;15.60;61.40
18126;DHT22;53956;52.442;13.284;2023-03-12T08:17:46;15.20;64.10
18126;DHT22;53956;52.442;13.284;2023-03-12T08:20:13;15.40;62.50
18126;DHT22;53956;52.442;13.284;2023-03-12T08:22:39;15.40;62.70
18126;DHT22;53956;52.442;13.284;2023-03-12T08:25:08;15.40;62.70
18126;DHT22;53956;52.442;13.284;2023-03-12T08:27:35;15.70;61.70
18126;DHT22;53956;52.442;13.284;2023-03-12T08:30:02;15.30;64.30
18126;DHT22;53956;52.442;13.284;2023-03-12T08:32:29;15.50;62.20
18126;DHT22;53956;52.442;13.284;2023-03-12T08:34:56;15.10;64.40
18126;DHT22;53956;52.442;13.284;2023-03-12T08:37:23;15.50;62.60
18126;DHT22;53956;52.442;13.284;2023-03-12T08:39:49;15.60;62.00
18126;DHT22;53956;52.442;13.284;2023-03-12T08:42:17;15.60;62.80
18126;DHT22;53956;52.442;13.284;2023-03-12T08:44:44;15.60;62.30
18126;DHT22;53956;52.442;13.284;2023-03-12T08:47:11;15.70;61.80
18126;DHT22;53956;52.442;13.284;2023-03-12T08:49:37;15.50;61.80
18126;DHT22;53956;52.442;13.284;2023-03-12T08:52:04;15.50;62.40
18126;DHT22;53956;52.442;13.284;2023-03-12T08:54:31;15.90;62.20
18126;DHT22;53956;52.442;13.284;2023-03-12T08:56:57;15.90;61.40
18126;DHT22;53956;52.442;13.284;2023-03-12T08:59:25;16.40;61.10
18126;DHT22;53956;52.442;13.284;2023-03-12T09:01:52;16.10;60.90
18126;DHT22;53956;52.442;13.284;2023-03-12T09:04:19;15.30;63.10
18126;DHT22;53956;52.442;13.284;2023-03-12T09:06:45;15.80;61.90
18126;DHT22;53956;52.442;13.284;2023-03-12T09:09:12;15.90;61.50
18126;DHT22;53956;52.442;13.284;2023-03-12T09:11:39;16.80;59.50
18126;DHT22;53956;52.442;13.284;2023-03-12T09:14:06;16.10;59.70
18126;DHT22;53956;52.442;13.284;2023-03-12T09:16:34;15.80;60.50
18126;DHT22;53956;52.442;13.284;2023-03-12T09:19:01;15.70;60.10
18126;DHT22;53956;52.442;13.284;2023-03-12T09:21:28;15.40;62.40
18126;DHT22;53956;52.442;13.284;2023-03-12T09:23:54;15.10;62.40
18126;DHT22;53956;52.442;13.284;2023-03-12T09:26:22;14.20;63.00
18126;DHT22;53956;52.442;13.284;2023-03-12T09:28:48;12.70;65.90
18126;DHT22;53956;52.442;13.284;2023-03-12T09:31:15;13.10;67.40
18126;DHT22;53956;52.442;13.284;2023-03-12T09:33:43;12.50;67.70
18126;DHT22;53956;52.442;13.284;2023-03-12T09:36:10;12.10;68.30
18126;DHT22;53956;52.442;13.284;2023-03-12T09:38:37;11.80;70.70
18126;DHT22;53956;52.442;13.284;2023-03-12T09:41:04;12.10;70.40
18126;DHT22;53956;52.442;13.284;2023-03-12T09:43:36;11.60;71.00
18126;DHT22;53956;52.442;13.284;2023-03-12T09:46:10;11.20;71.80
18126;DHT22;53956;52.442;13.284;2023-03-12T09:48:37;11.20;71.00
18126;DHT22;53956;52.442;13.284;2023-03-12T09:51:13;11.00;72.60
18126;DHT22;53956;52.442;13.284;2023-03-12T09:53:43;11.40;73.10
18126;DHT22;53956;52.442;13.284;2023-03-12T09:56:14;11.50;72.60
18126;DHT22;53956;52.442;13.284;2023-03-12T09:58:42;11.30;72.20
18126;DHT22;53956;52.442;13.284;2023-03-12T10:04:19;10.90;73.20
18126;DHT22;53956;52.442;13.284;2023-03-12T10:06:53;10.70;75.20
18126;DHT22;53956;52.442;13.284;2023-03-12T10:09:32;10.20;73.80
18126;DHT22;53956;52.442;13.284;2023-03-12T10:12:07;10.20;75.00
18126;DHT22;53956;52.442;13.284;2023-03-12T10:14:45;10.20;76.50
18126;DHT22;53956;52.442;13.284;2023-03-12T10:17:24;10.30;76.30
18126;DHT22;53956;52.442;13.284;2023-03-12T10:20:02;10.60;76.40
18126;DHT22;53956;52.442;13.284;2023-03-12T10:22:45;10.80;75.90
18126;DHT22;53956;52.442;13.284;2023-03-12T10:25:21;11.00;74.70
18126;DHT22;53956;52.442;13.284;2023-03-12T10:27:52;11.20;74.80
18126;DHT22;53956;52.442;13.284;2023-03-12T10:30:21;11.20;73.90
18126;DHT22;53956;52.442;13.284;2023-03-12T10:32:50;11.30;73.40
18126;DHT22;53956;52.442;13.284;2023-03-12T10:35:20;11.40;75.10
18126;DHT22;53956;52.442;13.284;2023-03-12T10:37:50;11.50;75.80
18126;DHT22;53956;52.442;13.284;2023-03-12T10:40:22;11.20;74.50
18126;DHT22;53956;52.442;13.284;2023-03-12T10:42:49;11.50;75.50
18126;DHT22;53956;52.442;13.284;2023-03-12T10:45:36;11.10;73.50
18126;DHT22;53956;52.442;13.284;2023-03-12T10:48:05;10.60;74.40
18126;DHT22;53956;52.442;13.284;2023-03-12T10:50:34;10.20;76.30
18126;DHT22;53956;52.442;13.284;2023-03-12T10:53:17;10.20;75.70
18126;DHT22;53956;52.442;13.284;2023-03-12T10:55:57;10.30;77.60
18126;DHT22;53956;52.442;13.284;2023-03-12T10:58:25;10.30;76.10
18126;DHT22;53956;52.442;13.284;2023-03-12T11:00:57;10.50;74.90
18126;DHT22;53956;52.442;13.284;2023-03-12T11:03:24;10.40;74.00
18126;DHT22;53956;52.442;13.284;2023-03-12T11:05:53;10.50;74.70
18126;DHT22;53956;52.442;13.284;2023-03-12T11:08:22;10.40;73.50
18126;DHT22;53956;52.442;13.284;2023-03-12T11:10:52;10.40;74.30
18126;DHT22;53956;52.442;13.284;2023-03-12T11:13:30;10.40;73.40
18126;DHT22;53956;52.442;13.284;2023-03-12T11:15:59;10.50;73.00
18126;DHT22;53956;52.442;13.284;2023-03-12T11:18:29;10.30;72.10
18126;DHT22;53956;52.442;13.284;2023-03-12T11:21:15;9.80;71.60
18126;DHT22;53956;52.442;13.284;2023-03-12T11:24:02;9.90;73.60
18126;DHT22;53956;52.442;13.284;2023-03-12T11:26:35;10.00;74.10
18126;DHT22;53956;52.442;13.284;2023-03-12T11:29:04;9.80;73.30
18126;DHT22;53956;52.442;13.284;2023-03-12T11:31:36;10.00;73.60
18126;DHT22;53956;52.442;13.284;2023-03-12T11:34:06;10.20;72.30
18126;DHT22;53956;52.442;13.284;2023-03-12T11:36:42;10.20;72.30
18126;DHT22;53956;52.442;13.284;2023-03-12T11:39:20;10.10;71.70
18126;DHT22;53956;52.442;13.284;2023-03-12T11:42:02;9.80;71.50
18126;DHT22;53956;52.442;13.284;2023-03-12T11:44:38;9.80;70.70
18126;DHT22;53956;52.442;13.284;2023-03-12T11:47:23;9.80;69.10
18126;DHT22;53956;52.442;13.284;2023-03-12T11:50:06;10.00;71.60
18126;DHT22;53956;52.442;13.284;2023-03-12T11:52:48;10.10;71.60
18126;DHT22;53956;52.442;13.284;2023-03-12T11:55:31;9.90;68.20
18126;DHT22;53956;52.442;13.284;2023-03-12T11:58:16;9.90;68.90
18126;DHT22;53956;52.442;13.284;2023-03-12T12:00:51;10.10;68.60
18126;DHT22;53956;52.442;13.284;2023-03-12T12:06:23;9.90;67.90
18126;DHT22;53956;52.442;13.284;2023-03-12T12:09:11;9.90;68.00
18126;DHT22;53956;52.442;13.284;2023-03-12T12:11:52;9.90;66.30
18126;DHT22;53956;52.442;13.284;2023-03-12T12:14:34;9.70;66.90
18126;DHT22;53956;52.442;13.284;2023-03-12T12:17:16;9.50;65.70
18126;DHT22;53956;52.442;13.284;2023-03-12T12:19:56;9.40;64.60
18126;DHT22;53956;52.442;13.284;2023-03-12T12:22:33;9.50;64.80
18126;DHT22;53956;52.442;13.284;2023-03-12T12:25:27;9.60;63.90
18126;DHT22;53956;52.442;13.284;2023-03-12T12:28:14;9.50;61.20
18126;DHT22;53956;52.442;13.284;2023-03-12T12:30:53;9.40;61.40
18126;DHT22;53956;52.442;13.284;2023-03-12T12:33:32;9.40;59.50
18126;DHT22;53956;52.442;13.284;2023-03-12T12:36:02;9.40;60.60
18126;DHT22;53956;52.442;13.284;2023-03-12T12:38:34;9.30;59.00
18126;DHT22;53956;52.442;13.284;2023-03-12T12:41:08;9.20;60.20
18126;DHT22;53956;52.442;13.284;2023-03-12T12:43:38;9.30;61.30
18126;DHT22;53956;52.442;13.284;2023-03-12T12:46:09;9.30;61.10
18126;DHT22;53956;52.442;13.284;2023-03-12T12:48:39;9.40;61.10
18126;DHT22;53956;52.442;13.284;2023-03-12T12:51:08;9.50;62.20
18126;DHT22;53956;52.442;13.284;2023-03-12T12:53:43;9.60;61.80
18126;DHT22;53956;52.442;13.284;2023-03-12T12:56:18;9.50;61.20
18126;DHT22;53956;52.442;13.284;2023-03-12T12:59:04;9.30;62.10
18126;DHT22;53956;52.442;13.284;2023-03-12T13:01:37;9.40;62.60
18126;DHT22;53956;52.442;13.284;2023-03-12T13:04:08;9.60;61.70
18126;DHT22;53956;52.442;13.284;2023-03-12T13:06:53;9.50;62.20
18126;DHT22;53956;52.442;13.284;2023-03-12T13:09:23;9.50;62.40
18126;DHT22;53956;52.442;13.284;2023-03-12T13:12:06;9.40;62.10
18126;DHT22;53956;52.442;13.284;2023-03-12T13:14:37;9.50;61.00
18126;DHT22;53956;52.442;13.284;2023-03-12T13:17:21;9.40;61.40
18126;DHT22;53956;52.442;13.284;2023-03-12T13:19:51;9.20;61.30
18126;DHT22;53956;52.442;13.284;2023-03-12T13:22:30;9.20;62.50
18126;DHT22;53956;52.442;13.284;2023-03-12T13:25:11;8.90;62.40
18126;DHT22;53956;52.442;13.284;2023-03-12T13:27:44;9.00;64.20
18126;DHT22;53956;52.442;13.284;2023-03-12T13:30:46;9.10;63.40
18126;DHT22;53956;52.442;13.284;2023-03-12T13:33:15;9.10;63.20
18126;DHT22;53956;52.442;13.284;2023-03-12T13:36:01;9.10;62.70
18126;DHT22;53956;52.442;13.284;2023-03-12T13:38:36;8.90;62.30
18126;DHT22;53956;52.442;13.284;2023-03-12T13:41:05;9.10;63.60
18126;DHT22;53956;52.442;13.284;2023-03-12T13:43:50;9.10;62.00
18126;DHT22;53956;52.442;13.284;2023-03-12T13:46:40;9.00;62.50
18126;DHT22;53956;52.442;13.284;2023-03-12T13:49:15;9.00;62.90
18126;DHT22;53956;52.442;13.284;2023-03-12T13:51:45;9.30;63.00
18126;DHT22;53956;52.442;13.284;2023-03-12T13:54:15;9.10;62.90
18126;DHT22;53956;52.442;13.284;2023-03-12T13:56:52;9.30;64.00
18126;DHT22;53956;52.442;13.284;2023-03-12T13:59:22;9.20;64.60
18126;DHT22;53956;52.442;13.284;2023-03-12T14:01:55;8.80;65.10
18126;DHT22;53956;52.442;13.284;2023-03-12T14:04:32;8.50;65.20
18126;DHT22;53956;52.442;13.284;2023-03-12T14:07:23;8.70;64.70
18126;DHT22;53956;52.442;13.284;2023-03-12T14:09:58;8.60;65.70
18126;DHT22;53956;52.442;13.284;2023-03-12T14:12:32;8.70;65.60
18126;DHT22;53956;52.442;13.284;2023-03-12T14:15:08;8.60;64.40
18126;DHT22;53956;52.442;13.284;2023-03-12T14:17:41;8.90;65.70
18126;DHT22;53956;52.442;13.284;2023-03-12T14:20:13;9.00;74.30
18126;DHT22;53956;52.442;13.284;2023-03-12T14:22:44;9.10;68.50
18126;DHT22;53956;52.442;13.284;2023-03-12T14:25:15;8.90;65.30
18126;DHT22;53956;52.442;13.284;2023-03-12T14:27:44;8.90;66.40
18126;DHT22;53956;52.442;13.284;2023-03-12T14:30:18;9.00;65.20
18126;DHT22;53956;52.442;13.284;2023-03-12T14:32:49;8.90;68.60
18126;DHT22;53956;52.442;13.284;2023-03-12T14:35:20;8.90;66.30
18126;DHT22;53956;52.442;13.284;2023-03-12T14:37:53;8.70;64.80
18126;DHT22;53956;52.442;13.284;2023-03-12T14:40:23;8.40;66.20
18126;DHT22;53956;52.442;13.284;2023-03-12T14:42:51;8.60;67.10
18126;DHT22;53956;52.442;13.284;2023-03-12T14:45:20;8.40;67.30
18126;DHT22;53956;52.442;13.284;2023-03-12T14:47:52;8.50;67.20
18126;DHT22;53956;52.442;13.284;2023-03-12T14:50:22;8.30;67.50
18126;DHT22;53956;52.442;13.284;2023-03-12T14:52:49;8.50;67.40
18126;DHT22;53956;52.442;13.284;2023-03-12T14:55:19;8.40;68.40
18126;DHT22;53956;52.442;13.284;2023-03-12T14:57:47;8.60;69.20
18126;DHT22;53956;52.442;13.284;2023-03-12T15:00:22;8.50;68.70
18126;DHT22;53956;52.442;13.284;2023-03-12T15:02:52;8.50;68.90
18126;DHT22;53956;52.442;13.284;2023-03-12T15:05:20;8.40;69.40
18126;DHT22;53956;52.442;13.284;2023-03-12T15:07:49;8.40;69.40
18126;DHT22;53956;52.442;13.284;2023-03-12T15:10:20;8.40;70.30
18126;DHT22;53956;52.442;13.284;2023-03-12T15:12:48;8.70;70.70
18126;DHT22;53956;52.442;13.284;2023-03-12T15:15:30;8.30;70.30
18126;DHT22;53956;52.442;13.284;2023-03-12T15:18:04;8.00;71.00
18126;DHT22;53956;52.442;13.284;2023-03-12T15:20:31;8.10;71.70
18126;DHT22;53956;52.442;13.284;2023-03-12T15:22:59;8.30;71.90
18126;DHT22;53956;52.442;13.284;2023-03-12T15:25:28;8.00;72.50
18126;DHT22;53956;52.442;13.284;2023-03-12T15:28:04;8.30;74.10
18126;DHT22;53956;52.442;13.284;2023-03-12T15:30:32;8.30;74.10
18126;DHT22;53956;52.442;13.284;2023-03-12T15:33:11;8.40;72.80
18126;DHT22;53956;52.442;13.284;2023-03-12T15:35:58;8.40;74.20
18126;DHT22;53956;52.442;13.284;2023-03-12T15:38:26;8.30;74.00
18126;DHT22;53956;52.442;13.284;2023-03-12T15:40:54;8.40;76.40
18126;DHT22;53956;52.442;13.284;2023-03-12T15:43:23;8.10;76.90
18126;DHT22;53956;52.442;13.284;2023-03-12T15:45:56;7.80;77.00
18126;DHT22;53956;52.442;13.284;2023-03-12T15:48:28;7.80;78.80
18126;DHT22;53956;52.442;13.284;2023-03-12T15:50:55;7.90;79.60